createdAt,value
2022-08-11T00:00:48.509Z,52.00
2022-08-11T00:02:36.707Z,52.20
2022-08-11T00:04:12.289Z,52.50
2022-08-11T00:05:48.118Z,52.50
2022-08-11T00:07:20.922Z,52.50
2022-08-11T00:08:56.304Z,52.30
2022-08-11T00:10:31.953Z,52.50
2022-08-11T00:12:14.746Z,52.60
2022-08-11T00:13:51.421Z,52.70
2022-08-11T00:15:26.616Z,52.90
2022-08-11T00:17:03.709Z,52.70
2022-08-11T00:18:44.604Z,52.90
2022-08-11T00:20:19.788Z,53.00
2022-08-11T00:22:05.274Z,52.90
2022-08-11T00:23:46.485Z,53.60
2022-08-11T00:25:22.783Z,53.10
2022-08-11T00:26:56.914Z,53.10
2022-08-11T00:28:33.045Z,52.90
2022-08-11T00:30:09.371Z,53.00
2022-08-11T00:31:50.621Z,53.10
2022-08-11T00:33:44.249Z,53.40
2022-08-11T00:35:56.230Z,53.20
2022-08-11T00:37:23.738Z,53.30
2022-08-11T00:39:06.806Z,53.20
2022-08-11T00:40:51.936Z,53.80
2022-08-11T00:42:44.781Z,53.70
2022-08-11T00:44:43.253Z,53.70
2022-08-11T00:46:36.346Z,53.70
2022-08-11T00:48:27.737Z,54.30
2022-08-11T00:50:14.590Z,53.60
2022-08-11T00:52:14.538Z,53.60
2022-08-11T00:54:06.964Z,53.90
2022-08-11T00:57:37.046Z,53.60
2022-08-11T01:00:10.866Z,54.10
2022-08-11T01:02:20.076Z,54.10
2022-08-11T01:04:35.583Z,53.90
2022-08-11T01:06:50.681Z,54.70
2022-08-11T01:09:26.130Z,54.20
2022-08-11T01:11:55.474Z,54.40
2022-08-11T01:14:34.514Z,54.10
2022-08-11T01:16:50.833Z,54.20
2022-08-11T01:20:39.466Z,53.90
2022-08-11T01:22:51.802Z,54.60
2022-08-11T01:25:22.466Z,54.50
2022-08-11T01:27:26.646Z,54.50
2022-08-11T01:30:16.914Z,54.70
2022-08-11T01:32:41.474Z,55.00
2022-08-11T01:34:55.994Z,54.80
2022-08-11T01:37:05.887Z,54.80
2022-08-11T01:39:18.352Z,55.10
2022-08-11T01:41:51.431Z,55.20
2022-08-11T01:44:39.015Z,55.40
2022-08-11T01:46:19.434Z,55.30
2022-08-11T01:48:06.857Z,54.90
2022-08-11T01:50:08.854Z,55.20
2022-08-11T01:52:07.193Z,55.20
2022-08-11T01:53:55.443Z,55.40
2022-08-11T01:55:42.280Z,55.40
2022-08-11T01:57:32.799Z,55.30
2022-08-11T01:59:18.049Z,55.30
2022-08-11T02:01:15.291Z,55.50
2022-08-11T02:03:01.753Z,55.50
2022-08-11T02:04:47.135Z,55.70
2022-08-11T02:06:54.637Z,55.60
2022-08-11T02:08:50.519Z,55.80
2022-08-11T02:10:53.096Z,55.90
2022-08-11T02:12:51.203Z,55.70
2022-08-11T02:14:35.351Z,55.90
2022-08-11T02:16:27.821Z,55.50
2022-08-11T02:18:11.545Z,55.90
2022-08-11T02:20:15.392Z,55.80
2022-08-11T02:22:21.221Z,55.90
2022-08-11T02:24:07.876Z,55.90
2022-08-11T02:25:54.933Z,55.80
2022-08-11T02:27:42.550Z,56.00
2022-08-11T02:29:26.090Z,56.20
2022-08-11T02:32:17.162Z,56.00
2022-08-11T02:33:34.480Z,56.30
2022-08-11T02:35:24.051Z,56.00
2022-08-11T02:37:16.347Z,56.40
2022-08-11T02:39:07.969Z,56.30
2022-08-11T02:40:53.950Z,56.30
2022-08-11T02:42:42.235Z,56.50
2022-08-11T02:44:32.257Z,56.30
2022-08-11T02:46:24.459Z,56.60
2022-08-11T02:48:31.605Z,56.80
2022-08-11T02:50:20.187Z,56.60
2022-08-11T02:52:15.389Z,56.40
2022-08-11T02:54:07.802Z,56.70
2022-08-11T02:56:03.922Z,56.60
2022-08-11T02:57:48.572Z,56.80
2022-08-11T03:00:21.367Z,56.70
2022-08-11T03:02:08.467Z,57.00
2022-08-11T03:03:54.595Z,56.80
2022-08-11T03:05:50.441Z,56.90
2022-08-11T03:07:35.757Z,57.20
2022-08-11T03:09:24.577Z,57.10
2022-08-11T03:11:26.112Z,57.20
2022-08-11T03:13:30.029Z,57.20
2022-08-11T03:15:30.447Z,57.20
2022-08-11T03:17:22.720Z,57.10
2022-08-11T03:19:12.540Z,57.40
2022-08-11T03:20:59.189Z,57.20
2022-08-11T03:22:49.682Z,57.30
2022-08-11T03:24:30.373Z,57.40
2022-08-11T03:26:14.962Z,57.30
2022-08-11T03:27:59.138Z,57.50
2022-08-11T03:29:46.124Z,57.40
2022-08-11T03:31:28.471Z,57.40
2022-08-11T03:33:43.198Z,57.60
2022-08-11T03:35:21.518Z,57.90
2022-08-11T03:37:45.251Z,57.60
2022-08-11T03:39:34.143Z,58.00
2022-08-11T03:42:02.302Z,57.50
2022-08-11T03:43:58.768Z,57.60
2022-08-11T03:45:49.123Z,57.80
2022-08-11T03:47:54.995Z,57.70
2022-08-11T03:49:49.098Z,58.00
2022-08-11T03:51:51.808Z,58.00
2022-08-11T03:53:56.497Z,57.80
2022-08-11T03:56:21.176Z,58.10
2022-08-11T03:58:48.420Z,58.00
2022-08-11T04:01:18.186Z,58.00
2022-08-11T04:03:54.239Z,58.00
2022-08-11T04:06:28.528Z,58.00
2022-08-11T04:08:49.985Z,57.90
2022-08-11T04:11:09.824Z,58.00
2022-08-11T04:13:29.787Z,58.00
2022-08-11T04:15:46.453Z,58.20
2022-08-11T04:18:20.751Z,58.10
2022-08-11T04:20:52.597Z,58.10
2022-08-11T04:24:36.727Z,58.30
2022-08-11T04:25:58.384Z,58.10
2022-08-11T04:28:31.340Z,58.40
2022-08-11T04:30:14.743Z,58.50
2022-08-11T04:32:09.393Z,58.00
2022-08-11T04:34:27.176Z,58.30
2022-08-11T04:36:50.189Z,58.50
2022-08-11T04:39:12.190Z,58.50
2022-08-11T04:41:26.843Z,58.60
2022-08-11T04:44:08.002Z,58.60
2022-08-11T04:46:02.595Z,58.70
2022-08-11T04:48:13.650Z,58.40
2022-08-11T04:50:20.374Z,58.60
2022-08-11T04:52:42.092Z,58.80
2022-08-11T04:54:50.458Z,59.00
2022-08-11T04:56:44.977Z,59.00
2022-08-11T04:58:51.146Z,58.90
2022-08-11T05:00:51.627Z,59.10
2022-08-11T05:03:27.542Z,59.20
2022-08-11T05:05:31.153Z,59.60
2022-08-11T05:08:12.346Z,59.30
2022-08-11T05:10:20.013Z,59.80
2022-08-11T05:12:36.993Z,59.50
2022-08-11T05:14:51.964Z,59.70
2022-08-11T05:16:51.483Z,59.70
2022-08-11T05:18:47.578Z,59.40
2022-08-11T05:20:43.733Z,59.30
2022-08-11T05:22:40.332Z,59.40
2022-08-11T05:24:40.428Z,59.60
2022-08-11T05:26:47.815Z,59.80
2022-08-11T05:28:53.143Z,60.10
2022-08-11T05:30:49.481Z,60.40
2022-08-11T05:32:44.100Z,60.30
2022-08-11T05:34:42.336Z,60.20
2022-08-11T05:36:27.451Z,60.40
2022-08-11T05:38:19.449Z,60.70
2022-08-11T05:40:16.124Z,60.90
2022-08-11T05:42:09.144Z,61.10
2022-08-11T05:44:22.865Z,61.20
2022-08-11T05:46:20.171Z,61.10
2022-08-11T05:48:12.075Z,61.60
2022-08-11T05:50:13.524Z,61.50
2022-08-11T05:52:12.937Z,62.00
2022-08-11T05:54:28.580Z,61.90
2022-08-11T05:56:20.364Z,62.10
2022-08-11T05:57:59.323Z,62.40
2022-08-11T05:59:34.587Z,62.60
2022-08-11T06:01:10.459Z,62.80
2022-08-11T06:02:45.404Z,62.90
2022-08-11T06:04:25.041Z,63.00
2022-08-11T06:06:00.307Z,63.30
2022-08-11T06:07:49.220Z,63.30
2022-08-11T06:09:28.001Z,63.40
2022-08-11T06:11:05.172Z,63.40
2022-08-11T06:12:40.825Z,63.50
2022-08-11T06:14:15.557Z,63.50
2022-08-11T06:15:52.963Z,63.60
2022-08-11T06:17:38.508Z,63.60
2022-08-11T06:19:12.580Z,63.80
2022-08-11T06:20:49.478Z,63.60
2022-08-11T06:22:23.820Z,63.50
2022-08-11T06:24:00.614Z,63.50
2022-08-11T06:25:36.670Z,63.60
2022-08-11T06:27:13.078Z,63.50
2022-08-11T06:28:49.328Z,63.60
2022-08-11T06:30:39.667Z,63.40
2022-08-11T06:32:15.609Z,63.60
2022-08-11T06:34:10.380Z,63.30
2022-08-11T06:35:58.394Z,63.30
2022-08-11T06:37:48.528Z,63.20
2022-08-11T06:39:30.112Z,63.10
2022-08-11T06:41:34.270Z,62.70
2022-08-11T06:43:20.236Z,62.80
2022-08-11T06:45:08.291Z,62.60
2022-08-11T06:46:44.373Z,62.70
2022-08-11T06:48:23.169Z,62.70
2022-08-11T06:50:19.354Z,62.30
2022-08-11T06:51:51.996Z,62.00
2022-08-11T06:53:25.797Z,62.00
2022-08-11T06:55:11.358Z,62.10
2022-08-11T06:57:31.040Z,62.40
2022-08-11T06:59:22.579Z,62.30
2022-08-11T07:01:01.645Z,62.00
2022-08-11T07:02:44.220Z,62.10
2022-08-11T07:04:30.350Z,62.00
2022-08-11T07:06:24.193Z,61.60
2022-08-11T07:09:23.405Z,61.80
2022-08-11T07:11:46.163Z,61.90
2022-08-11T07:13:45.655Z,61.90
2022-08-11T07:16:10.741Z,61.80
2022-08-11T07:17:39.340Z,61.70
2022-08-11T07:19:36.418Z,61.90
2022-08-11T07:22:00.132Z,60.80
2022-08-11T07:24:02.964Z,61.10
2022-08-11T07:25:59.863Z,60.60
2022-08-11T07:28:01.487Z,60.20
2022-08-11T07:29:39.066Z,60.60
2022-08-11T07:31:17.926Z,61.00
2022-08-11T07:32:56.142Z,60.00
2022-08-11T07:34:37.268Z,60.00
2022-08-11T07:36:15.581Z,60.60
2022-08-11T07:38:02.125Z,61.00
2022-08-11T07:39:40.024Z,61.10
2022-08-11T07:41:17.265Z,61.10
2022-08-11T07:42:52.471Z,61.20
2022-08-11T07:44:34.724Z,61.00
2022-08-11T07:46:28.763Z,61.00
2022-08-11T07:48:21.638Z,60.20
2022-08-11T07:50:14.210Z,60.20
2022-08-11T07:52:08.740Z,59.40
2022-08-11T07:53:58.712Z,58.80
2022-08-11T07:55:51.058Z,57.40
2022-08-11T07:58:13.685Z,56.60
2022-08-11T08:00:04.087Z,57.00
2022-08-11T08:02:26.454Z,56.10
2022-08-11T08:04:20.656Z,54.70
2022-08-11T08:06:28.549Z,54.10
2022-08-11T08:08:27.295Z,52.80
2022-08-11T08:10:19.019Z,51.90
2022-08-11T08:12:11.203Z,51.20
2022-08-11T08:14:02.786Z,50.40
2022-08-11T08:15:55.047Z,49.50
2022-08-11T08:18:08.949Z,49.10
2022-08-11T08:19:44.835Z,48.00
2022-08-11T08:21:18.642Z,47.70
2022-08-11T08:22:56.957Z,46.80
2022-08-11T08:24:32.738Z,46.60
2022-08-11T08:26:30.020Z,46.70
2022-08-11T08:28:08.291Z,45.60
2022-08-11T08:30:01.911Z,45.10
2022-08-11T08:31:35.721Z,44.70
2022-08-11T08:33:13.181Z,44.90
2022-08-11T08:34:47.954Z,43.10
2022-08-11T08:36:25.392Z,42.60
2022-08-11T08:38:00.789Z,41.60
2022-08-11T08:39:37.634Z,41.40
2022-08-11T08:41:16.409Z,40.90
2022-08-11T08:42:56.120Z,39.60
2022-08-11T08:44:39.259Z,39.20
2022-08-11T08:46:16.547Z,38.50
2022-08-11T08:47:58.671Z,38.20
2022-08-11T08:49:40.644Z,37.30
2022-08-11T08:51:33.639Z,37.10
2022-08-11T08:53:33.126Z,37.30
2022-08-11T08:55:10.238Z,36.30
2022-08-11T08:56:46.618Z,35.50
2022-08-11T08:58:24.989Z,34.30
2022-08-11T09:00:00.605Z,33.90
2022-08-11T09:01:42.259Z,34.30
2022-08-11T09:03:41.818Z,33.80
2022-08-11T09:05:12.895Z,33.60
2022-08-11T09:06:48.770Z,33.70
2022-08-11T09:08:27.490Z,33.40
2022-08-11T09:10:01.495Z,33.10
2022-08-11T09:11:54.243Z,32.90
2022-08-11T09:13:28.991Z,32.80
2022-08-11T09:15:09.960Z,32.40
2022-08-11T09:16:44.943Z,31.80
2022-08-11T09:18:29.306Z,32.90
2022-08-11T09:20:09.450Z,32.40
2022-08-11T09:22:11.769Z,32.20
2022-08-11T09:24:11.275Z,31.70
2022-08-11T09:26:09.541Z,31.20
2022-08-11T09:27:50.220Z,31.40
2022-08-11T09:29:25.080Z,31.20
2022-08-11T09:31:02.056Z,30.70
2022-08-11T09:32:37.303Z,30.40
2022-08-11T09:34:11.989Z,31.00
2022-08-11T09:35:48.336Z,30.70
2022-08-11T09:37:54.760Z,30.30
2022-08-11T09:39:49.065Z,30.00
2022-08-11T09:41:25.548Z,29.80
2022-08-11T09:43:19.832Z,29.70
2022-08-11T09:44:54.541Z,29.50
2022-08-11T09:46:30.935Z,29.50
2022-08-11T09:48:07.071Z,29.20
2022-08-11T09:49:42.913Z,29.10
2022-08-11T09:51:18.694Z,28.90
2022-08-11T09:53:34.934Z,28.90
2022-08-11T09:54:50.344Z,28.90
2022-08-11T09:56:44.141Z,29.00
2022-08-11T09:58:41.601Z,28.70
2022-08-11T10:00:15.852Z,28.90
2022-08-11T10:01:57.158Z,28.60
2022-08-11T10:03:40.279Z,28.20
2022-08-11T10:05:37.093Z,28.30
2022-08-11T10:07:14.500Z,28.00
2022-08-11T10:08:54.111Z,28.20
2022-08-11T10:10:28.533Z,28.40
2022-08-11T10:12:04.778Z,28.40
2022-08-11T10:14:33.682Z,28.20
2022-08-11T10:16:15.908Z,27.90
2022-08-11T10:18:14.778Z,28.10
2022-08-11T10:20:05.397Z,27.50
2022-08-11T10:22:10.102Z,28.00
2022-08-11T10:24:05.989Z,27.60
2022-08-11T10:26:17.405Z,27.60
2022-08-11T10:28:30.404Z,28.10
2022-08-11T10:30:20.293Z,27.60
2022-08-11T10:32:21.707Z,27.70
2022-08-11T10:34:04.836Z,27.40
2022-08-11T10:35:39.592Z,27.30
2022-08-11T10:37:15.707Z,27.40
2022-08-11T10:38:52.230Z,27.30
2022-08-11T10:40:26.807Z,27.30
2022-08-11T10:42:41.476Z,27.10
2022-08-11T10:44:16.055Z,27.10
2022-08-11T10:46:07.441Z,26.90
2022-08-11T10:47:47.742Z,27.00
2022-08-11T10:49:24.535Z,27.30
2022-08-11T10:51:14.081Z,27.00
2022-08-11T10:53:09.007Z,27.00
2022-08-11T10:55:01.295Z,26.60
2022-08-11T10:56:57.941Z,26.70
2022-08-11T10:58:49.168Z,26.50
2022-08-11T11:00:24.215Z,26.50
2022-08-11T11:02:01.970Z,26.50
2022-08-11T11:03:37.787Z,25.90
2022-08-11T11:05:17.818Z,25.70
2022-08-11T11:07:00.350Z,26.10
2022-08-11T11:08:58.792Z,26.10
2022-08-11T11:10:34.275Z,25.80
2022-08-11T11:12:32.559Z,26.20
2022-08-11T11:14:24.157Z,25.80
2022-08-11T11:16:19.023Z,25.80
2022-08-11T11:17:57.603Z,25.90
2022-08-11T11:19:32.012Z,25.90
2022-08-11T11:21:09.692Z,26.30
2022-08-11T11:22:48.039Z,25.90
2022-08-11T11:24:43.419Z,25.50
2022-08-11T11:26:42.008Z,25.20
2022-08-11T11:28:35.310Z,25.50
2022-08-11T11:30:12.339Z,25.70
2022-08-11T11:32:00.217Z,25.30
2022-08-11T11:34:12.226Z,25.60
2022-08-11T11:36:06.739Z,24.90
2022-08-11T11:38:03.439Z,25.20
2022-08-11T11:39:39.541Z,25.20
2022-08-11T11:41:26.280Z,25.00
2022-08-11T11:43:02.469Z,25.00
2022-08-11T11:44:38.827Z,24.80
2022-08-11T11:46:13.799Z,24.90
2022-08-11T11:47:52.358Z,24.80
2022-08-11T11:49:32.521Z,24.80
2022-08-11T11:51:07.302Z,24.40
2022-08-11T11:52:42.089Z,24.80
2022-08-11T11:54:17.212Z,24.50
2022-08-11T11:55:53.799Z,24.30
2022-08-11T11:57:59.359Z,24.10
2022-08-11T11:59:53.759Z,24.30
2022-08-11T12:01:28.593Z,24.30
2022-08-11T12:03:05.877Z,24.30
2022-08-11T12:04:45.215Z,24.40
2022-08-11T12:06:22.152Z,25.00
2022-08-11T12:08:15.201Z,24.10
2022-08-11T12:09:50.247Z,23.80
2022-08-11T12:11:46.422Z,24.30
2022-08-11T12:13:37.766Z,23.90
2022-08-11T12:15:12.996Z,24.10
2022-08-11T12:16:48.958Z,23.70
2022-08-11T12:18:22.813Z,23.60
2022-08-11T12:19:57.261Z,23.30
2022-08-11T12:21:32.243Z,23.60
2022-08-11T12:23:24.823Z,23.90
2022-08-11T12:25:16.114Z,24.00
2022-08-11T12:27:15.966Z,24.30
2022-08-11T12:28:51.994Z,24.20
2022-08-11T12:30:26.451Z,24.20
2022-08-11T12:32:00.484Z,23.80
2022-08-11T12:33:35.142Z,23.90
2022-08-11T12:35:11.669Z,23.80
2022-08-11T12:36:56.089Z,23.70
2022-08-11T12:38:30.695Z,23.30
2022-08-11T12:40:43.181Z,23.30
2022-08-11T12:42:41.964Z,23.60
2022-08-11T12:44:37.022Z,24.00
2022-08-11T12:46:20.470Z,23.70
2022-08-11T12:48:59.589Z,23.70
2022-08-11T12:50:26.361Z,23.50
2022-08-11T12:52:14.954Z,23.80
2022-08-11T12:53:58.627Z,23.60
2022-08-11T12:56:03.966Z,23.20
2022-08-11T12:58:03.660Z,23.30
2022-08-11T12:59:55.988Z,23.20
2022-08-11T13:01:47.663Z,23.00
2022-08-11T13:03:40.747Z,23.00
2022-08-11T13:05:16.920Z,23.30
2022-08-11T13:06:51.612Z,23.10
2022-08-11T13:08:27.763Z,23.00
2022-08-11T13:10:05.138Z,22.90
2022-08-11T13:11:58.864Z,23.00
2022-08-11T13:13:54.134Z,23.30
2022-08-11T13:15:27.759Z,23.80
2022-08-11T13:17:19.609Z,23.70
2022-08-11T13:18:54.212Z,23.30
2022-08-11T13:20:29.019Z,23.20
2022-08-11T13:22:05.242Z,23.00
2022-08-11T13:23:41.418Z,22.80
2022-08-11T13:25:35.347Z,23.00
2022-08-11T13:27:12.466Z,22.60
2022-08-11T13:28:47.459Z,22.90
2022-08-11T13:30:46.735Z,22.60
2022-08-11T13:32:26.223Z,22.20
2022-08-11T13:34:01.741Z,22.30
2022-08-11T13:35:36.654Z,22.20
2022-08-11T13:37:14.478Z,22.60
2022-08-11T13:38:50.969Z,22.40
2022-08-11T13:40:33.281Z,22.40
2022-08-11T13:42:22.250Z,22.20
2022-08-11T13:43:58.327Z,21.70
2022-08-11T13:45:31.886Z,21.50
2022-08-11T13:47:08.829Z,21.30
2022-08-11T13:48:43.211Z,21.10
2022-08-11T13:50:18.531Z,21.10
2022-08-11T13:51:53.027Z,21.40
2022-08-11T13:53:30.384Z,21.10
2022-08-11T13:55:04.698Z,21.50
2022-08-11T13:56:43.387Z,21.20
2022-08-11T13:58:40.142Z,21.00
2022-08-11T14:00:24.948Z,21.20
2022-08-11T14:02:28.828Z,21.70
2022-08-11T14:04:29.002Z,21.50
2022-08-11T14:06:08.332Z,21.50
2022-08-11T14:07:50.679Z,21.30
2022-08-11T14:09:28.617Z,21.30
2022-08-11T14:12:23.868Z,21.30
2022-08-11T14:13:42.266Z,21.20
2022-08-11T14:15:28.718Z,21.60
2022-08-11T14:17:09.798Z,21.60
2022-08-11T14:18:48.539Z,21.70
2022-08-11T14:20:38.441Z,21.40
2022-08-11T14:22:16.313Z,21.20
2022-08-11T14:23:55.070Z,21.20
2022-08-11T14:26:00.493Z,21.80
2022-08-11T14:28:29.586Z,21.40
2022-08-11T14:29:28.099Z,21.00
2022-08-11T14:31:05.185Z,20.80
2022-08-11T14:32:45.487Z,20.80
2022-08-11T14:34:30.343Z,20.70
2022-08-11T14:36:06.014Z,20.70
2022-08-11T14:37:41.003Z,20.90
2022-08-11T14:39:19.273Z,21.10
2022-08-11T14:41:12.097Z,21.10
2022-08-11T14:43:03.168Z,20.90
2022-08-11T14:44:56.719Z,21.10
2022-08-11T14:46:51.326Z,21.00
2022-08-11T14:48:25.055Z,20.50
2022-08-11T14:50:10.253Z,20.50
2022-08-11T14:51:47.877Z,20.50
2022-08-11T14:53:24.394Z,20.20
2022-08-11T14:55:16.267Z,20.30
2022-08-11T14:56:49.103Z,20.60
2022-08-11T14:58:26.252Z,20.90
2022-08-11T15:00:03.844Z,21.10
2022-08-11T15:01:56.630Z,20.90
2022-08-11T15:03:34.514Z,20.50
2022-08-11T15:05:08.522Z,20.90
2022-08-11T15:06:42.942Z,21.20
2022-08-11T15:08:18.514Z,20.80
2022-08-11T15:12:03.118Z,20.90
2022-08-11T15:13:38.964Z,20.80
2022-08-11T15:15:31.426Z,21.00
2022-08-11T15:17:09.768Z,20.90
2022-08-11T15:18:43.341Z,20.60
2022-08-11T15:20:37.715Z,20.40
2022-08-11T15:22:29.396Z,20.70
2022-08-11T15:24:21.214Z,20.60
2022-08-11T15:25:59.684Z,20.40
2022-08-11T15:28:01.192Z,20.30
2022-08-11T15:29:56.355Z,20.60
2022-08-11T15:31:50.176Z,20.50
2022-08-11T15:33:46.806Z,20.40
2022-08-11T15:35:46.711Z,20.60
2022-08-11T15:37:27.165Z,20.60
2022-08-11T15:39:04.227Z,20.80
2022-08-11T15:41:04.727Z,20.40
2022-08-11T15:43:06.156Z,20.70
2022-08-11T15:45:17.362Z,20.40
2022-08-11T15:46:56.362Z,20.30
2022-08-11T15:48:46.362Z,21.20
2022-08-11T15:50:22.238Z,21.00
2022-08-11T15:52:04.437Z,20.50
2022-08-11T15:53:56.757Z,20.70
2022-08-11T15:55:33.852Z,20.40
2022-08-11T15:57:08.986Z,21.10
2022-08-11T15:59:10.728Z,21.60
2022-08-11T16:01:21.965Z,21.90
2022-08-11T16:03:16.940Z,21.50
2022-08-11T16:04:55.071Z,21.70
2022-08-11T16:06:29.489Z,20.90
2022-08-11T16:08:05.472Z,20.80
2022-08-11T16:09:51.910Z,20.90
2022-08-11T16:11:28.983Z,21.30
2022-08-11T16:13:24.115Z,21.20
2022-08-11T16:15:20.756Z,21.40
2022-08-11T16:16:58.004Z,21.60
2022-08-11T16:18:41.646Z,21.70
2022-08-11T16:20:21.462Z,21.80
2022-08-11T16:21:57.580Z,21.80
2022-08-11T16:23:31.087Z,21.90
2022-08-11T16:27:02.078Z,22.30
2022-08-11T16:27:13.463Z,22.30
2022-08-11T16:28:50.141Z,22.30
2022-08-11T16:30:28.073Z,22.40
2022-08-11T16:32:18.939Z,22.70
2022-08-11T16:33:55.270Z,23.00
2022-08-11T16:35:49.167Z,23.00
2022-08-11T16:37:42.183Z,23.20
2022-08-11T16:39:18.518Z,23.10
2022-08-11T16:40:55.426Z,23.10
2022-08-11T16:43:00.189Z,23.20
2022-08-11T16:44:58.182Z,23.10
2022-08-11T16:46:50.685Z,23.20
2022-08-11T16:48:35.830Z,23.90
2022-08-11T16:50:12.269Z,23.80
2022-08-11T16:51:48.695Z,23.90
2022-08-11T16:53:22.346Z,23.60
2022-08-11T16:55:52.208Z,23.70
2022-08-11T16:57:30.399Z,23.80
2022-08-11T16:59:18.086Z,24.00
2022-08-11T17:00:51.912Z,23.90
2022-08-11T17:02:51.741Z,23.90
2022-08-11T17:05:02.115Z,24.00
2022-08-11T17:06:57.143Z,23.70
2022-08-11T17:08:56.934Z,24.40
2022-08-11T17:11:03.826Z,24.20
2022-08-11T17:13:00.231Z,24.00
2022-08-11T17:14:41.111Z,24.30
2022-08-11T17:16:20.775Z,24.70
2022-08-11T17:17:56.571Z,24.40
2022-08-11T17:20:40.172Z,24.30
2022-08-11T17:21:33.564Z,24.70
2022-08-11T17:23:40.970Z,24.80
2022-08-11T17:25:18.440Z,25.00
2022-08-11T17:26:56.875Z,25.90
2022-08-11T17:28:32.466Z,25.80
2022-08-11T17:30:08.607Z,24.80
2022-08-11T17:32:00.463Z,24.70
2022-08-11T17:33:54.050Z,24.60
2022-08-11T17:35:34.271Z,24.50
2022-08-11T17:37:10.634Z,24.60
2022-08-11T17:38:48.392Z,24.80
2022-08-11T17:40:26.044Z,24.80
2022-08-11T17:42:18.892Z,25.40
2022-08-11T17:44:12.510Z,25.50
2022-08-11T17:46:06.131Z,25.60
2022-08-11T17:48:00.542Z,25.90
2022-08-11T17:49:37.255Z,25.70
2022-08-11T17:51:35.854Z,25.60
2022-08-11T17:53:29.857Z,25.50
2022-08-11T17:55:50.959Z,25.90
2022-08-11T17:57:37.386Z,26.10
2022-08-11T17:59:32.479Z,26.80
2022-08-11T18:01:09.942Z,27.20
2022-08-11T18:03:03.727Z,27.40
2022-08-11T18:04:37.476Z,27.60
2022-08-11T18:06:15.343Z,27.60
2022-08-11T18:08:11.746Z,27.70
2022-08-11T18:10:03.039Z,28.10
2022-08-11T18:12:10.007Z,28.10
2022-08-11T18:14:08.467Z,28.40
2022-08-11T18:16:03.507Z,28.60
2022-08-11T18:17:55.819Z,28.30
2022-08-11T18:19:46.951Z,28.40
2022-08-11T18:21:39.411Z,28.40
2022-08-11T18:23:41.899Z,28.60
2022-08-11T18:25:45.608Z,28.80
2022-08-11T18:27:41.326Z,28.90
2022-08-11T18:29:41.725Z,29.10
2022-08-11T18:31:36.686Z,29.20
2022-08-11T18:35:43.370Z,29.80
2022-08-11T18:37:38.407Z,30.00
2022-08-11T18:39:33.078Z,30.10
2022-08-11T18:41:28.502Z,30.40
2022-08-11T18:43:27.288Z,30.40
2022-08-11T18:45:31.263Z,30.40
2022-08-11T18:47:34.801Z,30.90
2022-08-11T18:50:03.985Z,30.80
2022-08-11T18:51:47.447Z,31.00
2022-08-11T18:53:41.011Z,30.80
2022-08-11T18:55:37.523Z,30.90
2022-08-11T18:57:32.919Z,31.20
2022-08-11T18:59:30.428Z,31.20
2022-08-11T19:01:26.691Z,31.50
2022-08-11T19:03:20.804Z,31.80
2022-08-11T19:05:15.124Z,31.90
2022-08-11T19:07:10.813Z,32.10
2022-08-11T19:09:10.677Z,32.20
2022-08-11T19:11:04.928Z,32.50
2022-08-11T19:13:01.150Z,32.50
2022-08-11T19:14:55.252Z,32.70
2022-08-11T19:16:50.719Z,33.70
2022-08-11T19:18:43.831Z,33.10
2022-08-11T19:20:44.240Z,33.10
2022-08-11T19:22:37.053Z,33.70
2022-08-11T19:24:29.656Z,33.80
2022-08-11T19:26:26.632Z,34.20
2022-08-11T19:28:23.765Z,34.40
2022-08-11T19:30:15.964Z,34.60
2022-08-11T19:32:09.460Z,34.80
2022-08-11T19:34:10.657Z,35.10
2022-08-11T19:36:04.708Z,35.00
2022-08-11T19:37:58.295Z,35.20
2022-08-11T19:39:50.837Z,35.30
2022-08-11T19:41:52.003Z,35.60
2022-08-11T19:43:51.551Z,35.90
2022-08-11T19:45:43.499Z,36.00
2022-08-11T19:47:43.231Z,36.20
2022-08-11T19:49:36.807Z,36.50
2022-08-11T19:51:29.708Z,36.60
2022-08-11T19:53:22.695Z,36.70
2022-08-11T19:55:15.934Z,36.80
2022-08-11T19:57:08.887Z,37.10
2022-08-11T19:59:01.700Z,37.20
2022-08-11T20:00:52.517Z,37.80
2022-08-11T20:02:44.755Z,37.80
2022-08-11T20:04:36.034Z,37.90
2022-08-11T20:06:29.255Z,37.90
2022-08-11T20:08:23.060Z,38.10
2022-08-11T20:10:17.101Z,38.20
2022-08-11T20:12:13.626Z,38.20
2022-08-11T20:14:12.187Z,38.40
2022-08-11T20:16:05.649Z,39.10
2022-08-11T20:17:59.651Z,38.60
2022-08-11T20:19:57.081Z,38.90
2022-08-11T20:21:49.590Z,38.90
2022-08-11T20:23:41.601Z,39.00
2022-08-11T20:25:36.571Z,39.10
2022-08-11T20:27:29.047Z,39.20
2022-08-11T20:29:21.129Z,39.40
2022-08-11T20:31:14.837Z,39.50
2022-08-11T20:33:09.593Z,39.80
2022-08-11T20:35:03.047Z,39.70
2022-08-11T20:36:57.704Z,39.50
2022-08-11T20:38:52.019Z,39.80
2022-08-11T20:40:44.870Z,40.10
2022-08-11T20:42:41.601Z,40.30
2022-08-11T20:44:34.362Z,40.70
2022-08-11T20:46:26.851Z,40.40
2022-08-11T20:48:23.435Z,40.60
2022-08-11T20:50:20.491Z,40.90
2022-08-11T20:52:12.109Z,40.90
2022-08-11T20:54:08.983Z,40.80
2022-08-11T20:56:06.696Z,41.20
2022-08-11T20:58:05.233Z,41.10
2022-08-11T20:59:57.842Z,41.10
2022-08-11T21:01:52.017Z,41.30
2022-08-11T21:03:52.340Z,41.50
2022-08-11T21:06:08.851Z,41.70
2022-08-11T21:08:08.610Z,42.00
2022-08-11T21:10:09.754Z,42.10
2022-08-11T21:12:06.101Z,42.00
2022-08-11T21:14:01.991Z,42.10
2022-08-11T21:16:01.441Z,42.50
2022-08-11T21:18:00.247Z,42.60
2022-08-11T21:20:10.821Z,42.60
2022-08-11T21:22:10.330Z,42.90
2022-08-11T21:24:03.686Z,42.90
2022-08-11T21:26:09.146Z,42.80
2022-08-11T21:28:02.892Z,43.10
2022-08-11T21:29:57.639Z,43.10
2022-08-11T21:31:52.636Z,43.30
2022-08-11T21:33:46.546Z,43.30
2022-08-11T21:35:41.067Z,43.50
2022-08-11T21:37:39.297Z,43.70
2022-08-11T21:39:39.162Z,43.80
2022-08-11T21:41:31.726Z,43.90
2022-08-11T21:43:26.278Z,43.80
2022-08-11T21:45:21.047Z,44.10
2022-08-11T21:47:17.409Z,44.10
2022-08-11T21:49:13.868Z,44.10
2022-08-11T21:51:08.435Z,44.20
2022-08-11T21:53:01.127Z,44.40
2022-08-11T21:54:52.131Z,44.40
2022-08-11T21:56:45.952Z,44.40
2022-08-11T21:58:37.575Z,44.80
2022-08-11T22:00:30.028Z,44.80
2022-08-11T22:02:21.624Z,45.00
2022-08-11T22:04:13.091Z,45.00
2022-08-11T22:06:04.451Z,45.10
2022-08-11T22:07:59.051Z,45.20
2022-08-11T22:09:51.372Z,45.50
2022-08-11T22:11:43.086Z,45.30
2022-08-11T22:13:34.937Z,45.40
2022-08-11T22:15:28.327Z,45.70
2022-08-11T22:17:19.111Z,45.70
2022-08-11T22:19:13.198Z,45.70
2022-08-11T22:21:08.063Z,45.80
2022-08-11T22:23:02.017Z,46.00
2022-08-11T22:24:56.558Z,46.10
2022-08-11T22:26:53.018Z,46.20
2022-08-11T22:28:44.468Z,46.30
2022-08-11T22:30:35.719Z,46.30
2022-08-11T22:32:30.078Z,46.30
2022-08-11T22:34:22.363Z,46.60
2022-08-11T22:36:14.827Z,46.70
2022-08-11T22:38:08.948Z,46.70
2022-08-11T22:40:02.349Z,47.00
2022-08-11T22:41:56.984Z,47.20
2022-08-11T22:43:48.371Z,47.20
2022-08-11T22:45:39.880Z,47.30
2022-08-11T22:47:38.462Z,47.40
2022-08-11T22:49:56.111Z,47.60
2022-08-11T22:51:45.932Z,47.50
2022-08-11T22:53:58.051Z,47.60
2022-08-11T22:55:50.163Z,47.90
2022-08-11T22:58:00.914Z,47.70
2022-08-11T22:59:54.890Z,48.00
2022-08-11T23:01:56.152Z,48.00
2022-08-11T23:03:50.232Z,48.00
2022-08-11T23:05:41.808Z,48.10
2022-08-11T23:07:50.171Z,48.40
2022-08-11T23:09:44.455Z,48.40
2022-08-11T23:11:57.685Z,48.50
2022-08-11T23:13:53.338Z,48.50
2022-08-11T23:15:45.381Z,48.90
2022-08-11T23:17:36.427Z,48.90
2022-08-11T23:20:06.485Z,48.90
2022-08-11T23:21:40.064Z,49.10
2022-08-11T23:23:32.522Z,49.10
2022-08-11T23:25:27.936Z,49.20
2022-08-11T23:27:24.366Z,49.50
2022-08-11T23:29:17.172Z,49.60
2022-08-11T23:31:18.575Z,49.60
2022-08-11T23:33:15.228Z,49.60
2022-08-11T23:35:38.516Z,49.70
2022-08-11T23:37:24.974Z,49.90
2022-08-11T23:39:17.574Z,49.60
2022-08-11T23:41:10.994Z,49.80
2022-08-11T23:43:02.087Z,50.00
2022-08-11T23:44:52.996Z,49.90
2022-08-11T23:46:46.131Z,50.10
2022-08-11T23:48:41.975Z,50.30
2022-08-11T23:50:32.922Z,50.30
2022-08-11T23:52:25.480Z,50.40
2022-08-11T23:54:18.606Z,50.50
2022-08-11T23:56:11.126Z,50.60
2022-08-11T23:58:02.992Z,50.80
2022-08-11T23:59:54.391Z,50.70
